sensor_id;sensor_type;location;lat;lon;timestamp;pressure;altitude;pressure_sealevel;temperature;humidity
17635;BME280;8936;49.010;12.120;2023-03-04T00:00:33;98269.81;;;6.13;97.92
17635;BME280;8936;49.010;12.120;2023-03-04T00:03:00;98261.00;;;6.30;96.74
17635;BME280;8936;49.010;12.120;2023-03-04T00:05:26;98260.56;;;6.45;95.48
17635;BME280;8936;49.010;12.120;2023-03-04T00:07:54;98266.34;;;6.53;93.89
17635;BME280;8936;49.010;12.120;2023-03-04T00:10:21;98270.38;;;6.56;93.58
17635;BME280;8936;49.010;12.120;2023-03-04T00:12:49;98268.78;;;6.67;92.59
17635;BME280;8936;49.010;12.120;2023-03-04T00:15:15;98267.41;;;6.64;91.80
17635;BME280;8936;49.010;12.120;2023-03-04T00:17:41;98259.66;;;6.63;92.65
17635;BME280;8936;49.010;12.120;2023-03-04T00:20:10;98270.28;;;6.63;91.55
17635;BME280;8936;49.010;12.120;2023-03-04T00:22:37;98260.72;;;6.62;91.58
17635;BME280;8936;49.010;12.120;2023-03-04T00:25:03;98267.66;;;6.21;91.38
17635;BME280;8936;49.010;12.120;2023-03-04T00:27:30;98269.56;;;5.84;94.38
17635;BME280;8936;49.010;12.120;2023-03-04T00:29:57;98263.47;;;5.66;96.69
17635;BME280;8936;49.010;12.120;2023-03-04T00:32:24;98260.38;;;5.87;97.44
17635;BME280;8936;49.010;12.120;2023-03-04T00:34:50;98269.03;;;5.76;96.61
17635;BME280;8936;49.010;12.120;2023-03-04T00:37:16;98265.16;;;5.60;98.37
17635;BME280;8936;49.010;12.120;2023-03-04T00:39:43;98259.47;;;5.93;98.01
17635;BME280;8936;49.010;12.120;2023-03-04T00:42:09;98252.84;;;6.02;96.10
17635;BME280;8936;49.010;12.120;2023-03-04T00:44:35;98250.75;;;6.04;95.95
17635;BME280;8936;49.010;12.120;2023-03-04T00:47:03;98253.41;;;6.04;95.90
17635;BME280;8936;49.010;12.120;2023-03-04T00:49:29;98258.50;;;6.06;97.11
17635;BME280;8936;49.010;12.120;2023-03-04T00:51:56;98251.28;;;6.24;96.46
17635;BME280;8936;49.010;12.120;2023-03-04T00:54:22;98259.28;;;6.36;94.70
17635;BME280;8936;49.010;12.120;2023-03-04T00:56:48;98248.66;;;6.36;94.11
17635;BME280;8936;49.010;12.120;2023-03-04T00:59:15;98255.81;;;6.35;92.77
17635;BME280;8936;49.010;12.120;2023-03-04T01:01:41;98256.88;;;6.34;93.91
17635;BME280;8936;49.010;12.120;2023-03-04T01:04:09;98252.84;;;6.43;93.39
17635;BME280;8936;49.010;12.120;2023-03-04T01:06:35;98254.69;;;6.43;92.37
17635;BME280;8936;49.010;12.120;2023-03-04T01:09:02;98251.66;;;6.39;92.29
17635;BME280;8936;49.010;12.120;2023-03-04T01:11:28;98242.44;;;6.30;92.33
17635;BME280;8936;49.010;12.120;2023-03-04T01:13:55;98243.72;;;6.39;92.69
17635;BME280;8936;49.010;12.120;2023-03-04T01:16:21;98248.00;;;6.40;92.46
17635;BME280;8936;49.010;12.120;2023-03-04T01:18:48;98243.81;;;6.44;92.30
17635;BME280;8936;49.010;12.120;2023-03-04T01:21:16;98249.72;;;6.46;92.01
17635;BME280;8936;49.010;12.120;2023-03-04T01:23:42;98235.41;;;6.47;91.43
17635;BME280;8936;49.010;12.120;2023-03-04T01:26:09;98236.22;;;6.48;91.18
17635;BME280;8936;49.010;12.120;2023-03-04T01:28:35;98237.50;;;6.45;91.24
17635;BME280;8936;49.010;12.120;2023-03-04T01:31:02;98239.56;;;6.43;91.19
17635;BME280;8936;49.010;12.120;2023-03-04T01:33:29;98240.34;;;6.44;91.32
17635;BME280;8936;49.010;12.120;2023-03-04T01:35:55;98237.59;;;6.39;90.96
17635;BME280;8936;49.010;12.120;2023-03-04T01:38:23;98232.84;;;6.41;91.41
17635;BME280;8936;49.010;12.120;2023-03-04T01:40:50;98237.50;;;6.45;91.53
17635;BME280;8936;49.010;12.120;2023-03-04T01:43:17;98231.03;;;6.41;91.52
17635;BME280;8936;49.010;12.120;2023-03-04T01:45:46;98232.66;;;6.42;92.23
17635;BME280;8936;49.010;12.120;2023-03-04T01:48:13;98230.22;;;6.41;91.75
17635;BME280;8936;49.010;12.120;2023-03-04T01:50:42;98228.81;;;6.38;91.89
17635;BME280;8936;49.010;12.120;2023-03-04T01:53:09;98225.47;;;6.31;91.74
17635;BME280;8936;49.010;12.120;2023-03-04T01:55:39;98217.66;;;6.36;92.18
17635;BME280;8936;49.010;12.120;2023-03-04T01:58:05;98228.00;;;6.38;92.46
17635;BME280;8936;49.010;12.120;2023-03-04T02:00:34;98225.81;;;6.35;92.29
17635;BME280;8936;49.010;12.120;2023-03-04T02:03:03;98221.56;;;6.34;92.59
17635;BME280;8936;49.010;12.120;2023-03-04T02:05:31;98223.63;;;6.32;92.62
17635;BME280;8936;49.010;12.120;2023-03-04T02:07:58;98215.09;;;6.30;93.21
17635;BME280;8936;49.010;12.120;2023-03-04T02:10:25;98228.00;;;6.26;93.21
17635;BME280;8936;49.010;12.120;2023-03-04T02:12:53;98221.66;;;6.27;93.38
17635;BME280;8936;49.010;12.120;2023-03-04T02:15:20;98219.81;;;6.28;93.38
17635;BME280;8936;49.010;12.120;2023-03-04T02:17:47;98218.19;;;6.27;93.58
17635;BME280;8936;49.010;12.120;2023-03-04T02:22:59;98216.56;;;6.26;93.61
17635;BME280;8936;49.010;12.120;2023-03-04T02:25:28;98222.56;;;6.21;93.56
17635;BME280;8936;49.010;12.120;2023-03-04T02:27:57;98218.66;;;6.24;93.44
17635;BME280;8936;49.010;12.120;2023-03-04T02:30:24;98221.31;;;6.24;94.03
17635;BME280;8936;49.010;12.120;2023-03-04T02:32:50;98225.44;;;6.20;93.59
17635;BME280;8936;49.010;12.120;2023-03-04T02:35:17;98228.09;;;6.20;93.77
17635;BME280;8936;49.010;12.120;2023-03-04T02:37:44;98225.22;;;6.21;94.35
17635;BME280;8936;49.010;12.120;2023-03-04T02:40:12;98222.44;;;6.16;94.18
17635;BME280;8936;49.010;12.120;2023-03-04T02:42:42;98218.03;;;6.10;94.18
17635;BME280;8936;49.010;12.120;2023-03-04T02:47:51;98220.03;;;6.15;95.01
17635;BME280;8936;49.010;12.120;2023-03-04T02:50:17;98215.53;;;6.15;95.12
17635;BME280;8936;49.010;12.120;2023-03-04T02:52:43;98209.63;;;6.13;94.91
17635;BME280;8936;49.010;12.120;2023-03-04T02:55:10;98209.63;;;6.13;95.18
17635;BME280;8936;49.010;12.120;2023-03-04T02:57:36;98204.66;;;6.05;94.81
17635;BME280;8936;49.010;12.120;2023-03-04T03:00:03;98211.44;;;6.01;95.28
17635;BME280;8936;49.010;12.120;2023-03-04T03:02:29;98205.94;;;6.03;95.57
17635;BME280;8936;49.010;12.120;2023-03-04T03:04:57;98212.81;;;6.04;95.60
17635;BME280;8936;49.010;12.120;2023-03-04T03:07:23;98209.38;;;6.03;95.59
17635;BME280;8936;49.010;12.120;2023-03-04T03:09:49;98211.44;;;6.01;95.53
17635;BME280;8936;49.010;12.120;2023-03-04T03:12:16;98209.84;;;6.00;95.75
17635;BME280;8936;49.010;12.120;2023-03-04T03:14:42;98206.94;;;6.02;95.83
17635;BME280;8936;49.010;12.120;2023-03-04T03:17:08;98209.84;;;6.00;95.63
17635;BME280;8936;49.010;12.120;2023-03-04T03:19:35;98197.50;;;5.94;95.72
17635;BME280;8936;49.010;12.120;2023-03-04T03:22:03;98214.34;;;6.00;95.84
17635;BME280;8936;49.010;12.120;2023-03-04T03:24:30;98207.03;;;5.95;95.78
17635;BME280;8936;49.010;12.120;2023-03-04T03:26:56;98210.97;;;5.92;96.11
17635;BME280;8936;49.010;12.120;2023-03-04T03:29:22;98214.88;;;5.90;96.60
17635;BME280;8936;49.010;12.120;2023-03-04T03:31:49;98213.03;;;5.90;96.61
17635;BME280;8936;49.010;12.120;2023-03-04T03:34:15;98197.94;;;5.91;96.67
17635;BME280;8936;49.010;12.120;2023-03-04T03:36:41;98209.13;;;5.93;97.07
17635;BME280;8936;49.010;12.120;2023-03-04T03:39:09;98207.13;;;5.88;96.75
17635;BME280;8936;49.010;12.120;2023-03-04T03:41:35;98209.00;;;5.88;96.63
17635;BME280;8936;49.010;12.120;2023-03-04T03:44:02;98207.94;;;5.89;96.75
17635;BME280;8936;49.010;12.120;2023-03-04T03:46:28;98201.44;;;5.85;96.95
17635;BME280;8936;49.010;12.120;2023-03-04T03:48:54;98204.72;;;5.87;96.77
17635;BME280;8936;49.010;12.120;2023-03-04T03:51:21;98186.44;;;5.79;96.73
17635;BME280;8936;49.010;12.120;2023-03-04T03:53:47;98200.88;;;5.83;96.42
17635;BME280;8936;49.010;12.120;2023-03-04T03:56:15;98207.78;;;5.84;96.12
17635;BME280;8936;49.010;12.120;2023-03-04T03:58:41;98192.78;;;5.78;96.86
17635;BME280;8936;49.010;12.120;2023-03-04T04:01:07;98197.63;;;5.81;96.93
17635;BME280;8936;49.010;12.120;2023-03-04T04:03:34;98200.75;;;5.78;97.04
17635;BME280;8936;49.010;12.120;2023-03-04T04:06:00;98196.47;;;5.77;97.53
17635;BME280;8936;49.010;12.120;2023-03-04T04:08:27;98199.13;;;5.77;97.30
17635;BME280;8936;49.010;12.120;2023-03-04T04:10:53;98202.78;;;5.76;97.23
17635;BME280;8936;49.010;12.120;2023-03-04T04:13:21;98193.25;;;5.75;97.10
17635;BME280;8936;49.010;12.120;2023-03-04T04:15:47;98195.91;;;5.75;97.22
17635;BME280;8936;49.010;12.120;2023-03-04T04:18:13;98205.09;;;5.72;97.48
17635;BME280;8936;49.010;12.120;2023-03-04T04:20:39;98202.66;;;5.71;97.33
17635;BME280;8936;49.010;12.120;2023-03-04T04:23:06;98200.25;;;5.69;97.66
17635;BME280;8936;49.010;12.120;2023-03-04T04:25:32;98197.81;;;5.68;97.63
17635;BME280;8936;49.010;12.120;2023-03-04T04:27:59;98196.78;;;5.69;97.48
17635;BME280;8936;49.010;12.120;2023-03-04T04:30:26;98191.69;;;5.67;97.67
17635;BME280;8936;49.010;12.120;2023-03-04T04:32:53;98192.97;;;5.65;97.67
17635;BME280;8936;49.010;12.120;2023-03-04T04:35:19;98192.97;;;5.65;97.57
17635;BME280;8936;49.010;12.120;2023-03-04T04:37:45;98203.00;;;5.63;97.92
17635;BME280;8936;49.010;12.120;2023-03-04T04:40:12;98195.81;;;5.63;98.01
17635;BME280;8936;49.010;12.120;2023-03-04T04:42:38;98199.16;;;5.59;97.93
17635;BME280;8936;49.010;12.120;2023-03-04T04:45:05;98193.06;;;5.58;97.99
17635;BME280;8936;49.010;12.120;2023-03-04T04:47:33;98195.50;;;5.60;98.21
17635;BME280;8936;49.010;12.120;2023-03-04T04:49:59;98198.59;;;5.57;97.93
17635;BME280;8936;49.010;12.120;2023-03-04T04:52:26;98199.03;;;5.54;98.37
17635;BME280;8936;49.010;12.120;2023-03-04T04:54:52;98202.13;;;5.51;98.43
17635;BME280;8936;49.010;12.120;2023-03-04T04:57:18;98196.03;;;5.50;98.81
17635;BME280;8936;49.010;12.120;2023-03-04T04:59:45;98197.84;;;5.50;98.88
17635;BME280;8936;49.010;12.120;2023-03-04T05:02:11;98189.19;;;5.42;99.17
17635;BME280;8936;49.010;12.120;2023-03-04T05:04:39;98197.72;;;5.44;99.24
17635;BME280;8936;49.010;12.120;2023-03-04T05:07:05;98196.53;;;5.40;99.53
17635;BME280;8936;49.010;12.120;2023-03-04T05:09:31;98189.63;;;5.39;99.91
17635;BME280;8936;49.010;12.120;2023-03-04T05:11:58;98202.72;;;5.34;100.00
17635;BME280;8936;49.010;12.120;2023-03-04T05:14:24;98192.97;;;5.35;100.00
17635;BME280;8936;49.010;12.120;2023-03-04T05:16:50;98199.47;;;5.32;100.00
17635;BME280;8936;49.010;12.120;2023-03-04T05:19:17;98199.72;;;5.31;100.00
17635;BME280;8936;49.010;12.120;2023-03-04T05:21:45;98192.78;;;5.30;100.00
17635;BME280;8936;49.010;12.120;2023-03-04T05:24:11;98204.19;;;5.30;100.00
17635;BME280;8936;49.010;12.120;2023-03-04T05:26:37;98198.91;;;5.30;100.00
17635;BME280;8936;49.010;12.120;2023-03-04T05:29:03;98211.78;;;5.27;100.00
17635;BME280;8936;49.010;12.120;2023-03-04T05:31:30;98207.88;;;5.29;100.00
17635;BME280;8936;49.010;12.120;2023-03-04T05:33:56;98213.16;;;5.29;100.00
17635;BME280;8936;49.010;12.120;2023-03-04T05:36:22;98220.31;;;5.29;100.00
17635;BME280;8936;49.010;12.120;2023-03-04T05:38:50;98218.91;;;5.26;100.00
17635;BME280;8936;49.010;12.120;2023-03-04T05:41:16;98230.75;;;5.24;100.00
17635;BME280;8936;49.010;12.120;2023-03-04T05:43:46;98215.09;;;5.22;100.00
17635;BME280;8936;49.010;12.120;2023-03-04T05:46:13;98215.22;;;5.27;100.00
17635;BME280;8936;49.010;12.120;2023-03-04T05:48:40;98212.66;;;5.21;100.00
17635;BME280;8936;49.010;12.120;2023-03-04T05:51:06;98216.56;;;5.18;100.00
17635;BME280;8936;49.010;12.120;2023-03-04T05:53:32;98206.63;;;5.14;100.00
17635;BME280;8936;49.010;12.120;2023-03-04T05:56:06;98223.13;;;5.16;100.00
17635;BME280;8936;49.010;12.120;2023-03-04T05:58:32;98223.56;;;5.13;100.00
17635;BME280;8936;49.010;12.120;2023-03-04T06:00:59;98220.28;;;5.11;100.00
17635;BME280;8936;49.010;12.120;2023-03-04T06:03:25;98227.91;;;5.07;100.00
17635;BME280;8936;49.010;12.120;2023-03-04T06:05:52;98225.38;;;5.12;100.00
17635;BME280;8936;49.010;12.120;2023-03-04T06:08:18;98222.59;;;5.07;100.00
17635;BME280;8936;49.010;12.120;2023-03-04T06:10:45;98229.94;;;5.05;100.00
17635;BME280;8936;49.010;12.120;2023-03-04T06:13:13;98232.31;;;4.95;100.00
17635;BME280;8936;49.010;12.120;2023-03-04T06:15:39;98237.22;;;4.92;100.00
17635;BME280;8936;49.010;12.120;2023-03-04T06:18:05;98246.09;;;4.79;100.00
17635;BME280;8936;49.010;12.120;2023-03-04T06:20:32;98236.66;;;4.83;100.00
17635;BME280;8936;49.010;12.120;2023-03-04T06:22:58;98242.34;;;4.86;100.00
17635;BME280;8936;49.010;12.120;2023-03-04T06:25:25;98250.66;;;4.90;100.00
17635;BME280;8936;49.010;12.120;2023-03-04T06:27:51;98251.38;;;4.79;100.00
17635;BME280;8936;49.010;12.120;2023-03-04T06:30:19;98256.50;;;4.74;100.00
17635;BME280;8936;49.010;12.120;2023-03-04T06:32:45;98267.25;;;4.79;100.00
17635;BME280;8936;49.010;12.120;2023-03-04T06:35:12;98264.22;;;4.75;100.00
17635;BME280;8936;49.010;12.120;2023-03-04T06:37:39;98265.19;;;4.56;100.00
17635;BME280;8936;49.010;12.120;2023-03-04T06:40:06;98272.94;;;4.58;100.00
17635;BME280;8936;49.010;12.120;2023-03-04T06:42:33;98268.06;;;4.55;100.00
17635;BME280;8936;49.010;12.120;2023-03-04T06:45:01;98269.09;;;4.54;100.00
17635;BME280;8936;49.010;12.120;2023-03-04T06:47:29;98285.81;;;4.48;100.00
17635;BME280;8936;49.010;12.120;2023-03-04T06:49:56;98278.28;;;4.51;100.00
17635;BME280;8936;49.010;12.120;2023-03-04T06:52:22;98285.56;;;4.24;100.00
17635;BME280;8936;49.010;12.120;2023-03-04T06:54:48;98286.69;;;4.42;100.00
17635;BME280;8936;49.010;12.120;2023-03-04T06:57:15;98287.16;;;4.57;100.00
17635;BME280;8936;49.010;12.120;2023-03-04T06:59:41;98284.81;;;4.73;100.00
17635;BME280;8936;49.010;12.120;2023-03-04T07:02:08;98302.94;;;4.45;100.00
17635;BME280;8936;49.010;12.120;2023-03-04T07:04:36;98303.16;;;3.68;100.00
17635;BME280;8936;49.010;12.120;2023-03-04T07:07:03;98306.78;;;3.09;100.00
17635;BME280;8936;49.010;12.120;2023-03-04T07:09:29;98307.00;;;2.75;100.00
17635;BME280;8936;49.010;12.120;2023-03-04T07:11:56;98313.06;;;2.43;100.00
17635;BME280;8936;49.010;12.120;2023-03-04T07:14:22;98310.84;;;2.59;100.00
17635;BME280;8936;49.010;12.120;2023-03-04T07:16:48;98316.09;;;2.79;100.00
17635;BME280;8936;49.010;12.120;2023-03-04T07:19:15;98323.81;;;3.07;100.00
17635;BME280;8936;49.010;12.120;2023-03-04T07:21:42;98322.19;;;2.66;100.00
17635;BME280;8936;49.010;12.120;2023-03-04T07:24:09;98335.66;;;2.04;100.00
17635;BME280;8936;49.010;12.120;2023-03-04T07:26:35;98327.38;;;2.07;100.00
17635;BME280;8936;49.010;12.120;2023-03-04T07:29:02;98334.50;;;2.20;100.00
17635;BME280;8936;49.010;12.120;2023-03-04T07:31:29;98339.63;;;2.35;100.00
17635;BME280;8936;49.010;12.120;2023-03-04T07:33:56;98344.91;;;2.61;100.00
17635;BME280;8936;49.010;12.120;2023-03-04T07:36:23;98345.31;;;2.58;100.00
17635;BME280;8936;49.010;12.120;2023-03-04T07:38:51;98353.09;;;2.05;100.00
17635;BME280;8936;49.010;12.120;2023-03-04T07:41:19;98347.97;;;1.84;100.00
17635;BME280;8936;49.010;12.120;2023-03-04T07:43:46;98349.38;;;1.80;100.00
17635;BME280;8936;49.010;12.120;2023-03-04T07:46:12;98363.25;;;1.61;100.00
17635;BME280;8936;49.010;12.120;2023-03-04T07:48:39;98364.34;;;1.39;100.00
17635;BME280;8936;49.010;12.120;2023-03-04T07:51:06;98363.66;;;1.24;100.00
17635;BME280;8936;49.010;12.120;2023-03-04T07:53:33;98358.94;;;1.47;100.00
17635;BME280;8936;49.010;12.120;2023-03-04T07:56:02;98364.41;;;1.52;100.00
17635;BME280;8936;49.010;12.120;2023-03-04T07:58:28;98365.03;;;1.20;100.00
17635;BME280;8936;49.010;12.120;2023-03-04T08:00:55;98363.56;;;1.11;100.00
17635;BME280;8936;49.010;12.120;2023-03-04T08:03:21;98358.81;;;0.99;100.00
17635;BME280;8936;49.010;12.120;2023-03-04T08:05:47;98369.25;;;0.86;100.00
17635;BME280;8936;49.010;12.120;2023-03-04T08:08:14;98370.78;;;1.30;100.00
17635;BME280;8936;49.010;12.120;2023-03-04T08:10:40;98374.03;;;1.66;100.00
17635;BME280;8936;49.010;12.120;2023-03-04T08:13:08;98372.00;;;1.06;100.00
17635;BME280;8936;49.010;12.120;2023-03-04T08:15:38;98380.75;;;0.85;100.00
17635;BME280;8936;49.010;12.120;2023-03-04T08:18:04;98381.47;;;0.51;100.00
17635;BME280;8936;49.010;12.120;2023-03-04T08:20:30;98380.88;;;0.98;100.00
17635;BME280;8936;49.010;12.120;2023-03-04T08:22:57;98387.56;;;1.01;100.00
17635;BME280;8936;49.010;12.120;2023-03-04T08:25:23;98390.31;;;1.14;100.00
17635;BME280;8936;49.010;12.120;2023-03-04T08:27:49;98393.25;;;1.04;100.00
17635;BME280;8936;49.010;12.120;2023-03-04T08:30:17;98383.19;;;1.83;100.00
17635;BME280;8936;49.010;12.120;2023-03-04T08:32:44;98382.31;;;2.17;100.00
17635;BME280;8936;49.010;12.120;2023-03-04T08:35:10;98388.66;;;2.23;100.00
17635;BME280;8936;49.010;12.120;2023-03-04T08:37:36;98379.59;;;2.64;100.00
17635;BME280;8936;49.010;12.120;2023-03-04T08:40:03;98378.16;;;2.49;100.00
17635;BME280;8936;49.010;12.120;2023-03-04T08:42:29;98377.78;;;2.58;100.00
17635;BME280;8936;49.010;12.120;2023-03-04T08:44:56;98374.97;;;2.86;100.00
17635;BME280;8936;49.010;12.120;2023-03-04T08:47:23;98373.34;;;3.24;100.00
17635;BME280;8936;49.010;12.120;2023-03-04T08:49:50;98374.13;;;2.86;100.00
17635;BME280;8936;49.010;12.120;2023-03-04T08:52:16;98375.97;;;2.98;100.00
17635;BME280;8936;49.010;12.120;2023-03-04T08:54:42;98374.53;;;3.22;100.00
17635;BME280;8936;49.010;12.120;2023-03-04T08:57:09;98375.78;;;3.00;100.00
17635;BME280;8936;49.010;12.120;2023-03-04T08:59:35;98373.75;;;3.15;100.00
17635;BME280;8936;49.010;12.120;2023-03-04T09:02:01;98367.25;;;2.98;100.00
17635;BME280;8936;49.010;12.120;2023-03-04T09:04:29;98373.91;;;3.40;100.00
17635;BME280;8936;49.010;12.120;2023-03-04T09:06:55;98376.53;;;3.46;100.00
17635;BME280;8936;49.010;12.120;2023-03-04T09:09:22;98384.03;;;3.56;100.00
17635;BME280;8936;49.010;12.120;2023-03-04T09:11:48;98374.69;;;3.53;100.00
17635;BME280;8936;49.010;12.120;2023-03-04T09:14:15;98374.47;;;3.61;100.00
17635;BME280;8936;49.010;12.120;2023-03-04T09:16:41;98372.47;;;3.44;100.00
17635;BME280;8936;49.010;12.120;2023-03-04T09:19:07;98376.91;;;3.63;100.00
17635;BME280;8936;49.010;12.120;2023-03-04T09:21:35;98364.22;;;3.91;100.00
17635;BME280;8936;49.010;12.120;2023-03-04T09:24:02;98373.53;;;4.00;100.00
17635;BME280;8936;49.010;12.120;2023-03-04T09:26:28;98373.91;;;4.10;100.00
17635;BME280;8936;49.010;12.120;2023-03-04T09:28:55;98376.28;;;4.18;100.00
17635;BME280;8936;49.010;12.120;2023-03-04T09:31:22;98374.28;;;4.14;100.00
17635;BME280;8936;49.010;12.120;2023-03-04T09:33:50;98375.31;;;4.13;100.00
17635;BME280;8936;49.010;12.120;2023-03-04T09:36:16;98374.50;;;4.06;100.00
17635;BME280;8936;49.010;12.120;2023-03-04T09:38:44;98380.03;;;4.04;100.00
17635;BME280;8936;49.010;12.120;2023-03-04T09:41:13;98383.09;;;4.01;100.00
17635;BME280;8936;49.010;12.120;2023-03-04T09:43:41;98377.16;;;4.06;100.00
17635;BME280;8936;49.010;12.120;2023-03-04T09:46:09;98380.19;;;4.09;100.00
17635;BME280;8936;49.010;12.120;2023-03-04T09:48:38;98374.75;;;4.04;100.00
17635;BME280;8936;49.010;12.120;2023-03-04T09:51:10;98382.66;;;4.04;100.00
17635;BME280;8936;49.010;12.120;2023-03-04T09:53:41;98393.09;;;3.93;100.00
17635;BME280;8936;49.010;12.120;2023-03-04T09:56:13;98391.84;;;3.95;100.00
17635;BME280;8936;49.010;12.120;2023-03-04T09:58:42;98384.50;;;4.04;100.00
17635;BME280;8936;49.010;12.120;2023-03-04T10:01:10;98395.50;;;3.94;100.00
17635;BME280;8936;49.010;12.120;2023-03-04T10:03:41;98392.25;;;3.92;100.00
17635;BME280;8936;49.010;12.120;2023-03-04T10:06:09;98390.22;;;3.88;100.00
17635;BME280;8936;49.010;12.120;2023-03-04T10:08:40;98392.97;;;3.68;100.00
17635;BME280;8936;49.010;12.120;2023-03-04T10:11:12;98389.25;;;3.82;100.00
17635;BME280;8936;49.010;12.120;2023-03-04T10:13:42;98382.47;;;3.99;100.00
17635;BME280;8936;49.010;12.120;2023-03-04T10:16:11;98379.44;;;4.02;100.00
17635;BME280;8936;49.010;12.120;2023-03-04T10:18:40;98378.22;;;3.98;100.00
17635;BME280;8936;49.010;12.120;2023-03-04T10:21:12;98386.94;;;4.05;100.00
17635;BME280;8936;49.010;12.120;2023-03-04T10:23:42;98385.31;;;4.04;100.00
17635;BME280;8936;49.010;12.120;2023-03-04T10:26:10;98378.00;;;3.93;100.00
17635;BME280;8936;49.010;12.120;2023-03-04T10:28:37;98383.34;;;3.87;100.00
17635;BME280;8936;49.010;12.120;2023-03-04T10:31:08;98384.34;;;3.92;100.00
17635;BME280;8936;49.010;12.120;2023-03-04T10:33:36;98386.13;;;4.05;100.00
17635;BME280;8936;49.010;12.120;2023-03-04T10:36:04;98384.50;;;3.97;100.00
17635;BME280;8936;49.010;12.120;2023-03-04T10:38:31;98383.91;;;3.95;100.00
17635;BME280;8936;49.010;12.120;2023-03-04T10:40:58;98385.72;;;4.01;100.00
17635;BME280;8936;49.010;12.120;2023-03-04T10:43:24;98385.75;;;3.95;100.00
17635;BME280;8936;49.010;12.120;2023-03-04T10:45:53;98383.53;;;3.85;100.00
17635;BME280;8936;49.010;12.120;2023-03-04T10:48:23;98392.00;;;3.36;100.00
17635;BME280;8936;49.010;12.120;2023-03-04T10:50:49;98383.44;;;3.41;100.00
17635;BME280;8936;49.010;12.120;2023-03-04T10:53:24;98385.25;;;3.47;100.00
17635;BME280;8936;49.010;12.120;2023-03-04T10:55:53;98379.59;;;3.37;100.00
17635;BME280;8936;49.010;12.120;2023-03-04T10:58:20;98388.94;;;3.46;100.00
17635;BME280;8936;49.010;12.120;2023-03-04T11:00:49;98378.13;;;3.54;100.00
17635;BME280;8936;49.010;12.120;2023-03-04T11:03:28;98372.44;;;3.57;100.00
17635;BME280;8936;49.010;12.120;2023-03-04T11:06:05;98378.13;;;3.54;100.00
17635;BME280;8936;49.010;12.120;2023-03-04T11:08:32;98376.91;;;3.63;100.00
17635;BME280;8936;49.010;12.120;2023-03-04T11:10:58;98371.44;;;3.58;100.00
17635;BME280;8936;49.010;12.120;2023-03-04T11:13:25;98364.94;;;3.47;100.00
17635;BME280;8936;49.010;12.120;2023-03-04T11:15:53;98361.56;;;2.94;100.00
17635;BME280;8936;49.010;12.120;2023-03-04T11:18:21;98364.41;;;3.12;100.00
17635;BME280;8936;49.010;12.120;2023-03-04T11:20:52;98352.59;;;3.28;100.00
17635;BME280;8936;49.010;12.120;2023-03-04T11:23:20;98356.63;;;3.44;100.00
17635;BME280;8936;49.010;12.120;2023-03-04T11:25:51;98351.75;;;3.41;100.00
17635;BME280;8936;49.010;12.120;2023-03-04T11:28:21;98354.16;;;3.62;100.00
17635;BME280;8936;49.010;12.120;2023-03-04T11:30:49;98349.66;;;3.62;100.00
17635;BME280;8936;49.010;12.120;2023-03-04T11:33:19;98343.78;;;3.67;100.00
17635;BME280;8936;49.010;12.120;2023-03-04T11:35:50;98346.44;;;3.54;100.00
17635;BME280;8936;49.010;12.120;2023-03-04T11:38:21;98335.88;;;3.60;100.00
17635;BME280;8936;49.010;12.120;2023-03-04T11:40:49;98342.94;;;3.79;100.00
17635;BME280;8936;49.010;12.120;2023-03-04T11:43:18;98343.94;;;3.78;100.00
17635;BME280;8936;49.010;12.120;2023-03-04T11:48:38;98336.38;;;3.89;100.00
17635;BME280;8936;49.010;12.120;2023-03-04T11:51:07;98331.97;;;3.76;100.00
17635;BME280;8936;49.010;12.120;2023-03-04T11:53:41;98331.28;;;3.94;100.00
17635;BME280;8936;49.010;12.120;2023-03-04T11:56:12;98327.88;;;3.87;100.00
17635;BME280;8936;49.010;12.120;2023-03-04T11:58:43;98327.88;;;3.80;100.00
17635;BME280;8936;49.010;12.120;2023-03-04T12:01:14;98323.44;;;3.74;100.00
17635;BME280;8936;49.010;12.120;2023-03-04T12:03:55;98321.84;;;3.66;100.00
17635;BME280;8936;49.010;12.120;2023-03-04T12:06:26;98319.63;;;3.57;100.00
17635;BME280;8936;49.010;12.120;2023-03-04T12:09:06;98316.81;;;3.45;100.00
17635;BME280;8936;49.010;12.120;2023-03-04T12:11:37;98312.38;;;3.46;100.00
17635;BME280;8936;49.010;12.120;2023-03-04T12:14:10;98315.28;;;3.05;100.00
17635;BME280;8936;49.010;12.120;2023-03-04T12:16:43;98310.19;;;3.16;100.00
17635;BME280;8936;49.010;12.120;2023-03-04T12:19:21;98292.91;;;3.34;100.00
17635;BME280;8936;49.010;12.120;2023-03-04T12:21:52;98300.00;;;3.33;100.00
17635;BME280;8936;49.010;12.120;2023-03-04T12:24:28;98286.94;;;3.58;100.00
17635;BME280;8936;49.010;12.120;2023-03-04T12:26:59;98288.69;;;3.77;100.00
17635;BME280;8936;49.010;12.120;2023-03-04T12:29:32;98275.91;;;3.74;100.00
17635;BME280;8936;49.010;12.120;2023-03-04T12:32:02;98278.66;;;3.35;100.00
17635;BME280;8936;49.010;12.120;2023-03-04T12:34:45;98282.25;;;3.60;100.00
17635;BME280;8936;49.010;12.120;2023-03-04T12:37:23;98276.91;;;3.73;100.00
17635;BME280;8936;49.010;12.120;2023-03-04T12:40:11;98273.13;;;3.94;100.00
17635;BME280;8936;49.010;12.120;2023-03-04T12:42:44;98272.97;;;3.89;100.00
17635;BME280;8936;49.010;12.120;2023-03-04T12:45:19;98261.75;;;3.93;100.00
17635;BME280;8936;49.010;12.120;2023-03-04T12:47:52;98261.88;;;3.73;100.00
17635;BME280;8936;49.010;12.120;2023-03-04T12:50:24;98251.59;;;3.90;100.00
17635;BME280;8936;49.010;12.120;2023-03-04T12:52:56;98256.47;;;3.93;100.00
17635;BME280;8936;49.010;12.120;2023-03-04T12:55:30;98247.09;;;3.97;100.00
17635;BME280;8936;49.010;12.120;2023-03-04T12:57:58;98258.53;;;3.91;100.00
17635;BME280;8936;49.010;12.120;2023-03-04T13:00:29;98254.44;;;3.95;100.00
17635;BME280;8936;49.010;12.120;2023-03-04T13:03:02;98261.94;;;3.98;100.00
17635;BME280;8936;49.010;12.120;2023-03-04T13:05:37;98252.75;;;4.07;100.00
17635;BME280;8936;49.010;12.120;2023-03-04T13:08:11;98254.84;;;3.99;100.00
17635;BME280;8936;49.010;12.120;2023-03-04T13:10:40;98249.09;;;4.08;100.00
17635;BME280;8936;49.010;12.120;2023-03-04T13:13:15;98253.44;;;4.21;100.00
17635;BME280;8936;49.010;12.120;2023-03-04T13:16:00;98252.41;;;4.28;100.00